Epworth, Kentucky
Current Conditions -  °F | °C
As of 12:15 PM on Friday 31 Oct 2014 (Local Time) from KFGX Reporting Station
Light Rain Light Rain  
Wind Chill: 41°   Ceiling: 2900
Heat Index: 45°   Visibility: 7mi
Dew Point: 43°   Wind: 6mph
Humidity: 95%   Direction: 240°WSW
Pressure: 29.96"   Gusts: NA
Location:  38.5845°N, 83.5468°W
Report Text: KFGX 311615Z AUTO 24005KT 7SM -RA SCT007 OVC029 07/06 A2996 RMK AO2 T00700062
Loading
Personal Weather Stations






























Interactive Weather Map
Tropical Storm Tracking
New forecast layout! Learn more

10-Day Weather Forecast

Advertisements
Track Severe Weather on mobile